Time;durP1;ratioP1;P1;durP2;ratioP2;P2;SDS_P1;SDS_P2;PMS_P1;PMS_P2;Temp;Humidity;BMP_temperature;BMP_pressure;BME280_temperature;BME280_humidity;BME280_pressure;Samples;Min_cycle;Max_cycle;Signal;HPM_P1;HPM_P2
2020/12/05 00:02:15;;;;;;;19.13;9.60;;;6.60;99.90;;;;;;4442596;28;657080;-62
2020/12/05 00:05:02;;;;;;;21.47;9.37;;;6.80;99.90;;;;;;4467743;28;656630;-62
2020/12/05 00:07:49;;;;;;;15.57;8.07;;;6.90;99.90;;;;;;4470117;28;656686;-61
2020/12/05 00:10:36;;;;;;;18.13;8.57;;;7.10;99.90;;;;;;4445725;28;657126;-62
2020/12/05 00:13:23;;;;;;;15.60;7.83;;;7.10;99.90;;;;;;4462927;28;656579;-61
2020/12/05 00:16:13;;;;;;;16.87;8.00;;;7.20;99.90;;;;;;4451239;28;656626;-61
2020/12/05 00:19:00;;;;;;;16.27;7.43;;;7.20;99.90;;;;;;4451322;28;656548;-61
2020/12/05 00:21:50;;;;;;;18.40;8.03;;;7.20;99.90;;;;;;4473858;28;657831;-61
2020/12/05 00:24:37;;;;;;;19.97;9.30;;;7.20;99.90;;;;;;4429186;28;657407;-62
2020/12/05 00:27:25;;;;;;;19.35;8.63;;;7.20;99.90;;;;;;4438205;28;656738;-63
2020/12/05 00:30:12;;;;;;;16.73;8.27;;;7.30;99.90;;;;;;4438402;28;657360;-62
2020/12/05 00:33:00;;;;;;;16.77;8.70;;;7.30;99.90;;;;;;4415844;28;656555;-63
2020/12/05 00:35:47;;;;;;;17.90;8.43;;;7.20;99.90;;;;;;4440011;28;657578;-62
2020/12/05 00:38:34;;;;;;;16.83;8.97;;;7.20;99.90;;;;;;4429273;28;658432;-62
2020/12/05 00:41:21;;;;;;;20.10;9.38;;;7.20;99.90;;;;;;4450001;28;657266;-62
2020/12/05 00:44:09;;;;;;;21.70;8.40;;;7.20;99.90;;;;;;4441651;28;657256;-62
2020/12/05 00:46:56;;;;;;;18.63;8.83;;;7.20;99.90;;;;;;4418985;28;658369;-62
2020/12/05 00:49:43;;;;;;;17.53;8.97;;;7.20;99.90;;;;;;4436962;28;656829;-61
2020/12/05 00:52:31;;;;;;;18.77;8.97;;;7.10;99.90;;;;;;4423115;28;656783;-62
2020/12/05 00:55:18;;;;;;;20.17;9.80;;;7.00;99.90;;;;;;4434304;28;658451;-61
2020/12/05 00:58:05;;;;;;;18.30;9.47;;;7.00;99.90;;;;;;4420549;28;656922;-62
2020/12/05 01:00:52;;;;;;;20.27;9.43;;;6.90;99.90;;;;;;4438253;28;657308;-62
2020/12/05 01:03:40;;;;;;;18.80;9.67;;;6.90;99.90;;;;;;4422297;28;656567;-62
2020/12/05 01:06:27;;;;;;;19.13;9.30;;;6.80;99.90;;;;;;4442251;28;656030;-62
2020/12/05 01:09:14;;;;;;;21.47;9.83;;;6.80;99.90;;;;;;4434796;28;657159;-62
2020/12/05 01:12:00;;;;;;;20.10;9.97;;;6.70;99.90;;;;;;4415347;28;656484;-62
2020/12/05 01:14:48;;;;;;;24.05;10.80;;;6.60;99.90;;;;;;4449667;28;657197;-62
2020/12/05 01:17:36;;;;;;;20.00;10.00;;;6.50;99.90;;;;;;4421900;28;657554;-63
2020/12/05 01:20:23;;;;;;;26.67;11.20;;;6.40;99.90;;;;;;4436045;28;658337;-61
2020/12/05 01:23:10;;;;;;;22.17;10.73;;;6.30;99.90;;;;;;4414448;28;657406;-62
2020/12/05 01:25:57;;;;;;;25.10;10.80;;;6.30;99.90;;;;;;4436124;28;658312;-62
2020/12/05 01:28:44;;;;;;;22.23;10.77;;;6.30;99.90;;;;;;4449819;28;658252;-63
2020/12/05 01:31:31;;;;;;;37.60;16.27;;;6.30;99.90;;;;;;4462583;28;657892;-61
2020/12/05 01:34:19;;;;;;;29.33;12.80;;;6.20;99.90;;;;;;4470832;28;657718;-61
2020/12/05 01:37:06;;;;;;;23.90;10.77;;;6.20;99.90;;;;;;4448717;28;658762;-61
2020/12/05 01:39:53;;;;;;;26.40;12.20;;;6.10;99.90;;;;;;4471222;28;657467;-61
2020/12/05 01:42:40;;;;;;;23.30;11.03;;;6.10;99.90;;;;;;4443318;28;657483;-62
2020/12/05 01:45:27;;;;;;;17.07;8.90;;;6.10;99.90;;;;;;4472456;28;659164;-61
2020/12/05 01:48:16;;;;;;;19.17;9.52;;;6.10;99.90;;;;;;4442895;28;656479;-62
2020/12/05 01:51:04;;;;;;;19.77;9.87;;;6.10;99.90;;;;;;4464161;28;657049;-61
2020/12/05 01:53:51;;;;;;;18.33;9.30;;;6.10;99.90;;;;;;4443425;28;657245;-62
2020/12/05 01:56:38;;;;;;;18.57;9.23;;;6.10;99.90;;;;;;4459496;28;657395;-62
2020/12/05 01:59:25;;;;;;;17.43;8.50;;;6.10;99.90;;;;;;4435040;28;656629;-62
2020/12/05 02:02:12;;;;;;;18.67;9.07;;;6.10;99.90;;;;;;4458726;28;657627;-61
2020/12/05 02:05:03;;;;;;;16.97;9.73;;;6.10;99.90;;;;;;4453957;28;656331;-61
2020/12/05 02:07:54;;;;;;;17.63;9.27;;;6.10;99.90;;;;;;4416215;28;656535;-63
2020/12/05 02:10:42;;;;;;;18.90;9.07;;;6.20;99.90;;;;;;4443460;28;657484;-61
2020/12/05 02:13:31;;;;;;;17.27;8.80;;;6.20;99.90;;;;;;4460093;28;656634;-63
2020/12/05 02:16:18;;;;;;;15.63;8.27;;;6.40;99.90;;;;;;4454522;28;657119;-61
2020/12/05 02:19:05;;;;;;;18.77;9.00;;;6.40;99.90;;;;;;4448588;28;656354;-62
2020/12/05 02:21:53;;;;;;;16.03;8.50;;;6.30;99.90;;;;;;4465804;28;658564;-61
2020/12/05 02:24:41;;;;;;;14.23;8.63;;;6.30;99.90;;;;;;4447680;28;656643;-61
2020/12/05 02:27:30;;;;;;;18.80;8.70;;;6.50;99.90;;;;;;4465163;28;657173;-61
2020/12/05 02:30:17;;;;;;;15.40;8.30;;;6.40;99.90;;;;;;4432822;28;657428;-63
2020/12/05 02:33:04;;;;;;;15.50;8.73;;;6.50;99.90;;;;;;4463957;28;656626;-61
2020/12/05 02:35:51;;;;;;;18.10;8.70;;;6.50;99.90;;;;;;4435969;28;657941;-62
2020/12/05 02:38:44;;;;;;;20.83;9.23;;;6.60;99.90;;;;;;4459178;28;657406;-62
2020/12/05 02:41:36;;;;;;;18.90;9.40;;;6.50;99.90;;;;;;4421713;28;657002;-63
2020/12/05 02:44:23;;;;;;;19.45;9.43;;;6.40;99.90;;;;;;4439232;28;656595;-61
2020/12/05 02:47:11;;;;;;;18.58;9.48;;;6.40;99.90;;;;;;4443006;28;656401;-62
2020/12/05 02:49:58;;;;;;;18.37;8.80;;;6.40;99.90;;;;;;4461314;28;657857;-61
2020/12/05 02:52:45;;;;;;;20.07;8.77;;;6.40;99.90;;;;;;4435020;28;657278;-62
2020/12/05 02:55:31;;;;;;;18.77;9.20;;;6.30;99.90;;;;;;4470862;28;656999;-61
2020/12/05 02:58:19;;;;;;;19.40;9.23;;;6.30;99.90;;;;;;4463710;28;657515;-61
2020/12/05 03:01:06;;;;;;;18.57;9.63;;;6.30;99.90;;;;;;4437260;28;658077;-62
2020/12/05 03:03:53;;;;;;;19.67;10.07;;;6.30;99.90;;;;;;4454011;28;657092;-62
2020/12/05 03:06:40;;;;;;;19.20;9.83;;;6.40;99.90;;;;;;4438960;28;657521;-62
2020/12/05 03:09:27;;;;;;;19.30;9.90;;;6.40;99.90;;;;;;4464891;28;657059;-62
2020/12/05 03:12:14;;;;;;;20.50;9.47;;;6.30;99.90;;;;;;4451589;28;656660;-63
2020/12/05 03:15:02;;;;;;;18.23;9.60;;;6.30;99.90;;;;;;4466814;28;657018;-61
2020/12/05 03:17:49;;;;;;;20.27;9.60;;;6.30;99.90;;;;;;4442173;28;656880;-63
2020/12/05 03:20:36;;;;;;;26.30;11.20;;;6.20;99.90;;;;;;4466310;28;656299;-63
2020/12/05 03:23:23;;;;;;;24.53;10.73;;;6.20;99.90;;;;;;4457655;28;658004;-61
2020/12/05 03:26:10;;;;;;;19.70;10.13;;;6.20;99.90;;;;;;4441883;28;657906;-61
2020/12/05 03:28:58;;;;;;;19.47;9.93;;;6.20;99.90;;;;;;4455007;28;658342;-61
2020/12/05 03:31:49;;;;;;;18.77;10.07;;;6.10;99.90;;;;;;4451286;28;657732;-62
2020/12/05 03:34:36;;;;;;;17.50;9.37;;;6.10;99.90;;;;;;4440545;28;658625;-61
2020/12/05 03:37:24;;;;;;;19.40;9.60;;;6.10;99.90;;;;;;4461958;28;656659;-62
2020/12/05 03:40:11;;;;;;;19.77;9.87;;;6.40;99.90;;;;;;4440923;28;657690;-61
2020/12/05 03:42:58;;;;;;;19.93;9.93;;;6.30;99.90;;;;;;4469060;28;656245;-61
2020/12/05 03:45:45;;;;;;;21.80;9.87;;;6.20;99.90;;;;;;4450906;28;656550;-62
2020/12/05 03:48:33;;;;;;;21.90;10.13;;;6.10;99.90;;;;;;4468858;28;657532;-61
2020/12/05 03:51:20;;;;;;;16.98;8.93;;;6.10;99.90;;;;;;4446334;28;658295;-62
2020/12/05 03:54:07;;;;;;;17.43;9.83;;;6.10;99.90;;;;;;4466138;28;657583;-62
2020/12/05 03:56:54;;;;;;;20.80;10.10;;;6.10;99.90;;;;;;4455117;28;657091;-63
2020/12/05 03:59:41;;;;;;;20.90;9.87;;;6.10;99.90;;;;;;4464150;28;658405;-61
2020/12/05 04:02:28;;;;;;;25.13;10.00;;;6.10;99.90;;;;;;4461853;28;656620;-62
2020/12/05 04:05:16;;;;;;;17.73;9.10;;;6.10;99.90;;;;;;4449227;28;658634;-61
2020/12/05 04:08:03;;;;;;;20.33;9.87;;;6.10;99.90;;;;;;4463629;28;656505;-61
2020/12/05 04:10:50;;;;;;;18.63;9.77;;;6.00;99.90;;;;;;4450722;28;656485;-61
2020/12/05 04:13:37;;;;;;;21.23;10.37;;;6.00;99.90;;;;;;4464531;28;657651;-61
2020/12/05 04:16:25;;;;;;;19.70;9.60;;;6.00;99.90;;;;;;4440974;28;657309;-62
2020/12/05 04:19:11;;;;;;;19.37;9.47;;;6.00;99.90;;;;;;4473349;28;657214;-62
2020/12/05 04:22:01;;;;;;;20.33;10.15;;;6.00;99.90;;;;;;4469420;28;657815;-61
2020/12/05 04:24:48;;;;;;;23.52;12.20;;;6.00;99.90;;;;;;4439565;28;658231;-62
2020/12/05 04:27:35;;;;;;;21.33;11.03;;;6.20;99.90;;;;;;4442698;28;658156;-62
2020/12/05 04:30:22;;;;;;;23.50;10.93;;;6.30;99.90;;;;;;4460923;28;658407;-62
2020/12/05 04:33:09;;;;;;;22.63;10.07;;;6.20;99.90;;;;;;4462250;28;657577;-62
2020/12/05 04:35:56;;;;;;;18.87;9.73;;;6.20;99.90;;;;;;4445987;28;657685;-62
2020/12/05 04:38:43;;;;;;;20.90;10.30;;;6.20;99.90;;;;;;4461752;28;658426;-61
2020/12/05 04:41:30;;;;;;;19.00;9.63;;;6.10;99.90;;;;;;4448135;28;659173;-62
2020/12/05 04:44:17;;;;;;;17.97;9.30;;;6.10;99.90;;;;;;4468694;28;657181;-61
2020/12/05 04:47:04;;;;;;;17.73;8.93;;;6.00;99.90;;;;;;4444348;28;656902;-63
2020/12/05 04:49:52;;;;;;;17.93;8.97;;;6.10;99.90;;;;;;4469089;28;656390;-61
2020/12/05 04:52:49;;;;;;;23.87;11.50;;;6.00;99.90;;;;;;4445349;28;656510;-63
2020/12/05 04:55:40;;;;;;;21.67;10.07;;;5.90;99.90;;;;;;4421744;28;659286;-62
2020/12/05 04:58:27;;;;;;;25.77;12.53;;;5.80;99.90;;;;;;4439581;28;658198;-61
2020/12/05 05:01:19;;;;;;;23.47;11.23;;;5.70;99.90;;;;;;4450054;28;657279;-62
2020/12/05 05:04:06;;;;;;;21.43;10.97;;;5.70;99.90;;;;;;4442418;28;657414;-62
2020/12/05 05:07:02;;;;;;;20.73;10.70;;;5.60;99.90;;;;;;4466698;28;657565;-61
2020/12/05 05:09:53;;;;;;;27.58;13.80;;;5.60;99.90;;;;;;4425382;28;657497;-63
2020/12/05 05:12:41;;;;;;;23.87;11.57;;;5.50;99.90;;;;;;4448173;28;657595;-62
2020/12/05 05:15:29;;;;;;;32.10;13.47;;;5.50;99.90;;;;;;4467063;28;658433;-61
2020/12/05 05:18:16;;;;;;;25.50;12.77;;;5.40;99.90;;;;;;4445670;28;658797;-61
2020/12/05 05:21:03;;;;;;;70.70;28.73;;;5.20;99.90;;;;;;4460386;28;657868;-61
2020/12/05 05:23:50;;;;;;;94.27;34.03;;;5.10;99.90;;;;;;4440680;28;657511;-61
2020/12/05 05:26:37;;;;;;;69.43;26.90;;;5.10;99.90;;;;;;4470332;28;658961;-61
2020/12/05 05:29:26;;;;;;;80.03;30.43;;;5.10;99.90;;;;;;4458055;28;657389;-63
2020/12/05 05:32:24;;;;;;;64.70;26.10;;;5.20;99.90;;;;;;4467341;28;658160;-61
2020/12/05 05:35:12;;;;;;;71.93;25.47;;;5.20;99.90;;;;;;4423031;28;657768;-61
2020/12/05 05:38:00;;;;;;;62.30;22.63;;;5.20;99.90;;;;;;4442831;28;657623;-63
2020/12/05 05:40:47;;;;;;;51.30;20.27;;;5.30;99.90;;;;;;4471356;28;657653;-62
2020/12/05 05:43:34;;;;;;;68.00;25.17;;;5.20;99.90;;;;;;4467153;28;658152;-62
2020/12/05 05:46:26;;;;;;;61.90;22.47;;;5.30;99.90;;;;;;4439904;28;659262;-62
2020/12/05 05:49:14;;;;;;;46.03;18.63;;;5.40;99.90;;;;;;4435014;28;657935;-61
2020/12/05 05:52:01;;;;;;;40.97;16.93;;;5.40;99.90;;;;;;4441145;28;657612;-62
2020/12/05 05:54:53;;;;;;;40.73;14.83;;;5.50;99.90;;;;;;4466388;28;658470;-61
2020/12/05 05:57:40;;;;;;;34.80;14.20;;;5.50;99.90;;;;;;4416183;28;657872;-63
2020/12/05 06:00:27;;;;;;;36.77;14.23;;;5.50;99.90;;;;;;4459611;28;659012;-61
2020/12/05 06:03:20;;;;;;;35.93;14.37;;;5.60;99.90;;;;;;4466271;28;656943;-62
2020/12/05 06:06:07;;;;;;;27.50;12.80;;;5.60;99.90;;;;;;4437192;28;659227;-62
2020/12/05 06:08:54;;;;;;;34.77;14.20;;;5.70;99.90;;;;;;4447531;28;658703;-63
2020/12/05 06:11:41;;;;;;;27.27;12.27;;;5.70;99.90;;;;;;4462953;28;657729;-61
2020/12/05 06:14:28;;;;;;;24.30;10.90;;;5.80;99.90;;;;;;4469806;28;657766;-61
2020/12/05 06:17:16;;;;;;;23.03;11.17;;;5.80;99.90;;;;;;4451172;28;657694;-62
2020/12/05 06:20:04;;;;;;;22.05;10.82;;;5.90;99.90;;;;;;4448366;28;657776;-61
2020/12/05 06:22:51;;;;;;;20.63;10.40;;;6.00;99.90;;;;;;4428982;28;658393;-61
2020/12/05 06:25:38;;;;;;;24.27;11.50;;;6.10;99.90;;;;;;4440579;28;657494;-61
2020/12/05 06:28:25;;;;;;;25.67;11.07;;;6.10;99.90;;;;;;4448891;28;657557;-61
2020/12/05 06:31:12;;;;;;;22.50;11.00;;;6.10;99.90;;;;;;4461010;28;658229;-61
2020/12/05 06:33:59;;;;;;;22.30;10.67;;;6.30;99.90;;;;;;4441501;28;657871;-62
2020/12/05 06:36:49;;;;;;;22.80;11.00;;;6.40;99.90;;;;;;4467965;28;657367;-61
2020/12/05 06:39:35;;;;;;;21.97;10.57;;;6.40;99.90;;;;;;4441324;28;657917;-61
2020/12/05 06:42:22;;;;;;;24.52;11.02;;;6.70;99.90;;;;;;4460316;28;659245;-61
2020/12/05 06:45:10;;;;;;;22.43;9.73;;;6.70;99.90;;;;;;4442061;28;657655;-62
2020/12/05 06:48:31;;;;;;;24.10;10.60;;;6.80;99.90;;;;;;4469448;28;658205;-60
2020/12/05 06:51:22;;;;;;;20.27;10.57;;;6.80;99.90;;;;;;4437439;28;658279;-60
2020/12/05 06:54:10;;;;;;;21.97;10.63;;;6.70;99.90;;;;;;4414237;28;657716;-62
2020/12/05 06:57:12;;;;;;;22.03;10.90;;;6.70;99.90;;;;;;4455619;28;658629;-61
2020/12/05 07:00:13;;;;;;;23.17;10.77;;;6.80;99.90;;;;;;4437709;28;657875;-60
2020/12/05 07:03:01;;;;;;;21.70;10.07;;;6.90;99.90;;;;;;4417986;28;658255;-62
2020/12/05 07:05:48;;;;;;;19.80;10.67;;;6.90;99.90;;;;;;4458945;28;658105;-60
2020/12/05 07:08:36;;;;;;;24.13;11.17;;;6.90;99.90;;;;;;4436780;28;657392;-60
2020/12/05 07:11:24;;;;;;;20.93;10.23;;;7.00;99.90;;;;;;4460725;28;657474;-61
2020/12/05 07:14:11;;;;;;;19.00;10.03;;;7.00;99.90;;;;;;4440988;28;657811;-61
2020/12/05 07:16:58;;;;;;;21.80;9.53;;;7.10;99.90;;;;;;4453193;28;657440;-60
2020/12/05 07:19:45;;;;;;;19.23;9.73;;;7.20;99.90;;;;;;4434067;28;656688;-61
2020/12/05 07:22:32;;;;;;;19.10;9.77;;;7.40;99.90;;;;;;4460867;28;658336;-60
2020/12/05 07:25:19;;;;;;;18.63;10.23;;;7.40;99.90;;;;;;4465249;28;655558;-60
2020/12/05 07:28:07;;;;;;;17.27;9.13;;;7.50;99.90;;;;;;4440071;28;658231;-61
2020/12/05 07:30:53;;;;;;;17.80;9.30;;;7.70;99.90;;;;;;4461696;28;657056;-60
2020/12/05 07:33:41;;;;;;;20.23;10.23;;;7.70;99.90;;;;;;4436646;28;656844;-60
2020/12/05 07:36:27;;;;;;;18.83;9.90;;;7.80;99.90;;;;;;4460582;28;658760;-61
2020/12/05 07:39:14;;;;;;;19.87;10.57;;;7.80;99.90;;;;;;4438504;28;656399;-62
2020/12/05 07:42:01;;;;;;;19.57;10.07;;;7.80;99.90;;;;;;4464688;28;658734;-60
2020/12/05 07:44:49;;;;;;;19.17;9.23;;;7.80;99.90;;;;;;4458324;28;658234;-60
2020/12/05 07:47:36;;;;;;;18.53;9.63;;;7.80;99.90;;;;;;4430765;28;657952;-60
2020/12/05 07:50:30;;;;;;;18.67;9.87;;;7.80;99.90;;;;;;4464794;28;657462;-60
2020/12/05 07:53:22;;;;;;;21.67;10.97;;;7.80;99.90;;;;;;4442036;27;657373;-61
2020/12/05 07:56:14;;;;;;;30.00;12.40;;;7.80;99.90;;;;;;4442241;27;657772;-62
2020/12/05 07:59:01;;;;;;;27.90;13.00;;;7.70;99.90;;;;;;4449963;27;658538;-60
2020/12/05 08:01:58;;;;;;;29.57;13.27;;;7.70;99.90;;;;;;4456907;27;658570;-60
2020/12/05 08:04:51;;;;;;;31.75;13.82;;;7.70;99.90;;;;;;4406221;28;658453;-61
2020/12/05 08:07:39;;;;;;;31.67;14.20;;;7.70;99.90;;;;;;4429723;28;657471;-60
2020/12/05 08:10:28;;;;;;;31.13;13.00;;;7.70;99.90;;;;;;4443986;27;657839;-59
2020/12/05 08:13:24;;;;;;;28.50;13.10;;;7.70;99.90;;;;;;4436162;28;657704;-60
2020/12/05 08:16:11;;;;;;;24.77;12.43;;;7.80;99.90;;;;;;4413372;28;658024;-61
2020/12/05 08:18:59;;;;;;;25.23;12.23;;;7.90;99.90;;;;;;4461723;28;658665;-60
2020/12/05 08:21:46;;;;;;;23.73;11.10;;;7.90;99.90;;;;;;4440510;28;658737;-60
2020/12/05 08:24:33;;;;;;;19.53;9.63;;;8.00;99.90;;;;;;4457961;28;657424;-60
2020/12/05 08:27:21;;;;;;;23.23;11.07;;;8.20;99.90;;;;;;4451271;27;657218;-61
2020/12/05 08:30:08;;;;;;;25.37;12.73;;;8.30;99.90;;;;;;4460201;28;658765;-60
2020/12/05 08:33:00;;;;;;;24.90;13.03;;;8.30;99.90;;;;;;4435602;28;657558;-62
2020/12/05 08:35:48;;;;;;;29.37;14.00;;;8.10;99.90;;;;;;4435046;28;658391;-60
2020/12/05 08:38:35;;;;;;;26.23;12.63;;;8.10;99.90;;;;;;4438626;28;657375;-61
2020/12/05 08:41:22;;;;;;;26.73;13.87;;;8.10;99.90;;;;;;4459748;28;658178;-60
2020/12/05 08:44:11;;;;;;;39.10;17.87;;;8.00;99.90;;;;;;4448368;28;658450;-62
2020/12/05 08:47:01;;;;;;;45.67;21.43;;;7.90;99.90;;;;;;4455235;28;658322;-61
2020/12/05 08:49:48;;;;;;;43.83;19.53;;;7.80;99.90;;;;;;4438434;28;657681;-60
2020/12/05 08:52:36;;;;;;;41.15;19.80;;;7.70;99.90;;;;;;4424524;28;657529;-60
2020/12/05 08:55:24;;;;;;;37.47;18.20;;;7.70;99.90;;;;;;4457294;28;658390;-60
2020/12/05 08:58:11;;;;;;;33.17;16.10;;;7.60;99.90;;;;;;4435555;28;658701;-60
2020/12/05 09:00:58;;;;;;;32.73;15.90;;;7.60;99.90;;;;;;4463369;28;657198;-59
2020/12/05 09:03:45;;;;;;;34.40;16.60;;;7.60;99.90;;;;;;4448206;28;658523;-60
2020/12/05 09:06:32;;;;;;;30.80;15.55;;;7.60;99.90;;;;;;4457117;28;657695;-60
2020/12/05 09:09:29;;;;;;;29.20;14.17;;;7.70;99.90;;;;;;4447226;28;658875;-61
2020/12/05 09:12:17;;;;;;;30.30;15.33;;;7.70;99.90;;;;;;4436202;28;657660;-60
2020/12/05 09:15:05;;;;;;;25.70;13.23;;;7.70;99.90;;;;;;4451146;28;658143;-60
2020/12/05 09:17:56;;;;;;;27.85;14.70;;;7.90;99.90;;;;;;4428462;28;658569;-60
2020/12/05 09:20:43;;;;;;;33.13;14.73;;;8.00;99.90;;;;;;4428255;28;659625;-60
2020/12/05 09:23:30;;;;;;;39.50;18.80;;;8.30;99.90;;;;;;4439021;28;658139;-61
2020/12/05 09:26:18;;;;;;;41.97;18.80;;;8.40;99.90;;;;;;4463898;28;657847;-60
2020/12/05 09:29:05;;;;;;;45.73;20.17;;;8.70;99.90;;;;;;4441582;28;658389;-60
2020/12/05 09:31:52;;;;;;;32.73;15.93;;;8.70;99.90;;;;;;4462261;28;659074;-60
2020/12/05 09:34:39;;;;;;;29.70;13.17;;;8.70;99.90;;;;;;4435046;28;658497;-60
2020/12/05 09:37:26;;;;;;;33.90;14.23;;;8.80;99.90;;;;;;4457027;28;658074;-61
2020/12/05 09:40:14;;;;;;;25.73;11.67;;;8.90;99.90;;;;;;4460831;28;658758;-61
2020/12/05 09:43:02;;;;;;;21.40;10.10;;;9.00;99.90;;;;;;4436447;28;658907;-60
2020/12/05 09:45:49;;;;;;;19.80;9.73;;;9.20;99.90;;;;;;4462225;28;658316;-61
2020/12/05 09:48:36;;;;;;;20.17;10.43;;;9.30;99.90;;;;;;4440879;28;657938;-60
2020/12/05 09:51:23;;;;;;;23.00;11.10;;;9.40;99.90;;;;;;4451983;28;657669;-60
2020/12/05 09:54:10;;;;;;;24.10;10.47;;;9.40;99.90;;;;;;4446353;28;657829;-61
2020/12/05 09:56:57;;;;;;;20.07;9.63;;;9.50;99.90;;;;;;4468237;28;658630;-60
2020/12/05 09:59:44;;;;;;;18.73;9.20;;;9.60;99.90;;;;;;4457003;28;656570;-61
2020/12/05 10:02:31;;;;;;;19.53;8.80;;;9.60;99.90;;;;;;4447928;28;657730;-59
2020/12/05 10:05:18;;;;;;;24.97;9.47;;;9.60;99.90;;;;;;4454743;28;657119;-60
2020/12/05 10:08:05;;;;;;;17.83;9.63;;;9.60;99.90;;;;;;4443502;28;656670;-60
2020/12/05 10:10:53;;;;;;;20.87;8.93;;;9.70;99.90;;;;;;4465671;28;656476;-60
2020/12/05 10:13:40;;;;;;;18.60;9.27;;;9.80;99.90;;;;;;4439599;28;656438;-60
2020/12/05 10:16:28;;;;;;;18.00;8.77;;;9.80;99.90;;;;;;4469030;28;657513;-60
2020/12/05 10:19:15;;;;;;;17.47;9.03;;;9.80;99.90;;;;;;4442576;28;656610;-60
2020/12/05 10:22:02;;;;;;;21.10;9.90;;;9.80;99.90;;;;;;4462100;28;657562;-59
2020/12/05 10:24:49;;;;;;;20.33;10.80;;;9.90;99.90;;;;;;4454508;28;656704;-59
2020/12/05 10:27:38;;;;;;;23.57;11.67;;;10.00;99.90;;;;;;4440144;28;657626;-60
2020/12/05 10:30:24;;;;;;;21.87;11.43;;;10.00;99.90;;;;;;4449244;28;658641;-61
2020/12/05 10:33:12;;;;;;;23.77;11.20;;;10.00;99.90;;;;;;4472930;28;658915;-60
2020/12/05 10:35:59;;;;;;;23.50;12.03;;;10.10;99.30;;;;;;4449912;28;658690;-62
2020/12/05 10:38:46;;;;;;;22.37;11.23;;;10.10;99.30;;;;;;4466450;28;658880;-60
2020/12/05 10:41:35;;;;;;;24.10;10.63;;;10.10;99.90;;;;;;4462018;28;658876;-59
2020/12/05 10:44:22;;;;;;;26.63;13.20;;;10.20;98.80;;;;;;4445885;28;659402;-59
2020/12/05 10:47:09;;;;;;;31.93;12.83;;;10.20;99.50;;;;;;4454511;28;658742;-61
2020/12/05 10:49:57;;;;;;;23.48;13.00;;;10.10;99.90;;;;;;4453738;28;659712;-60
2020/12/05 10:52:44;;;;;;;28.60;13.23;;;10.10;99.90;;;;;;4436743;28;658797;-61
2020/12/05 10:55:31;;;;;;;30.40;14.33;;;10.10;99.90;;;;;;4474069;27;658372;-61
2020/12/05 10:58:18;;;;;;;30.43;14.70;;;10.10;99.90;;;;;;4455099;28;659849;-60
2020/12/05 11:01:05;;;;;;;28.73;14.00;;;10.10;99.90;;;;;;4450408;27;658667;-60
2020/12/05 11:03:52;;;;;;;28.52;13.38;;;10.00;99.90;;;;;;4469773;28;658494;-59
2020/12/05 11:06:40;;;;;;;25.50;13.52;;;10.00;99.90;;;;;;4453608;28;658758;-61
2020/12/05 11:09:27;;;;;;;32.73;14.33;;;10.00;99.90;;;;;;4460491;28;658884;-59
2020/12/05 11:12:14;;;;;;;22.33;12.03;;;10.10;99.60;;;;;;4450070;28;659562;-62
2020/12/05 11:15:01;;;;;;;30.85;13.15;;;10.10;99.10;;;;;;4466401;28;659714;-60
2020/12/05 11:17:48;;;;;;;28.43;13.80;;;10.10;99.90;;;;;;4464486;28;659201;-60
2020/12/05 11:20:36;;;;;;;32.40;15.20;;;10.10;99.90;;;;;;4448401;28;658771;-61
2020/12/05 11:23:23;;;;;;;26.33;12.80;;;10.10;99.90;;;;;;4459036;28;660232;-60
2020/12/05 11:26:10;;;;;;;25.38;13.07;;;10.10;99.90;;;;;;4447786;28;658587;-61
2020/12/05 11:28:57;;;;;;;27.27;13.43;;;10.10;99.90;;;;;;4456937;27;659258;-59
2020/12/05 11:31:44;;;;;;;27.60;12.63;;;10.00;99.90;;;;;;4445536;28;658781;-62
2020/12/05 11:34:31;;;;;;;27.33;12.43;;;10.00;99.90;;;;;;4465524;28;659957;-60
2020/12/05 11:37:18;;;;;;;24.00;11.57;;;10.00;99.90;;;;;;4451361;28;659115;-60
2020/12/05 11:40:06;;;;;;;24.87;13.10;;;10.00;99.90;;;;;;4431709;28;658696;-61
2020/12/05 11:42:53;;;;;;;24.57;12.60;;;10.00;99.90;;;;;;4463495;28;658531;-60
2020/12/05 11:45:40;;;;;;;28.80;14.10;;;10.10;99.90;;;;;;4439004;28;659235;-61
2020/12/05 11:48:27;;;;;;;27.67;14.03;;;10.10;99.90;;;;;;4461600;28;659872;-61
2020/12/05 11:51:16;;;;;;;30.13;13.47;;;10.00;99.90;;;;;;4450136;28;658610;-62
2020/12/05 11:54:03;;;;;;;25.90;12.10;;;10.00;99.90;;;;;;4459456;28;659233;-60
2020/12/05 11:56:51;;;;;;;22.80;11.90;;;10.00;99.90;;;;;;4419206;28;659998;-60
2020/12/05 11:59:40;;;;;;;32.07;15.00;;;10.00;99.90;;;;;;4462271;28;658805;-61
2020/12/05 12:02:27;;;;;;;41.63;17.13;;;10.10;99.90;;;;;;4428654;28;658920;-61
2020/12/05 12:05:14;;;;;;;76.43;22.23;;;10.00;99.90;;;;;;4445036;28;659836;-62
2020/12/05 12:08:01;;;;;;;75.00;23.57;;;10.10;99.90;;;;;;4456785;28;659187;-60
2020/12/05 12:10:48;;;;;;;80.47;27.10;;;10.10;99.90;;;;;;4459232;28;659500;-60
2020/12/05 12:13:36;;;;;;;67.07;24.37;;;10.10;99.90;;;;;;4438799;28;658738;-60
2020/12/05 12:16:23;;;;;;;58.50;23.00;;;10.10;99.90;;;;;;4450529;28;658225;-60
2020/12/05 12:19:10;;;;;;;85.45;31.10;;;10.10;99.90;;;;;;4435761;28;658207;-61
2020/12/05 12:21:59;;;;;;;56.37;24.33;;;10.10;99.90;;;;;;4452870;28;660252;-61
2020/12/05 12:24:46;;;;;;;46.97;23.50;;;10.10;99.90;;;;;;4426786;28;659781;-60
2020/12/05 12:27:33;;;;;;;54.73;25.80;;;10.10;99.90;;;;;;4454442;27;658289;-60
2020/12/05 12:30:21;;;;;;;48.63;23.20;;;10.10;99.90;;;;;;4424880;28;658757;-60
2020/12/05 12:33:08;;;;;;;56.57;25.43;;;10.00;99.90;;;;;;4428250;28;659144;-60
2020/12/05 12:35:55;;;;;;;62.60;27.43;;;10.10;99.90;;;;;;4415328;28;659003;-60
2020/12/05 12:38:42;;;;;;;65.13;29.10;;;10.10;99.90;;;;;;4447799;28;660308;-60
2020/12/05 12:41:29;;;;;;;77.20;31.90;;;10.10;99.90;;;;;;4436490;28;658890;-60
2020/12/05 12:44:16;;;;;;;68.97;28.17;;;10.00;99.90;;;;;;4443300;28;658718;-60
2020/12/05 12:47:13;;;;;;;60.87;25.37;;;10.00;99.90;;;;;;4438884;28;658608;-60
2020/12/05 12:50:00;;;;;;;61.00;25.57;;;10.00;99.90;;;;;;4395024;28;659920;-61
2020/12/05 12:52:47;;;;;;;65.80;27.57;;;10.00;99.90;;;;;;4437879;28;659205;-60
2020/12/05 12:55:33;;;;;;;38.87;17.60;;;10.00;99.90;;;;;;4440087;28;658561;-60
2020/12/05 12:58:27;;;;;;;32.38;14.43;;;10.00;99.90;;;;;;4423276;28;658648;-61
2020/12/05 13:01:17;;;;;;;27.63;14.07;;;9.90;99.90;;;;;;4421162;28;659489;-61
2020/12/05 13:04:05;;;;;;;27.30;12.47;;;10.00;99.90;;;;;;4437932;28;658345;-61
2020/12/05 13:06:56;;;;;;;24.23;12.03;;;10.00;99.90;;;;;;4449234;28;659192;-60
2020/12/05 13:09:42;;;;;;;36.00;15.27;;;10.20;99.90;;;;;;4426628;28;659105;-60
2020/12/05 13:12:29;;;;;;;30.77;14.38;;;10.10;99.90;;;;;;4429880;28;658634;-61
2020/12/05 13:15:16;;;;;;;26.63;13.43;;;10.00;99.90;;;;;;4453313;28;658724;-60
2020/12/05 13:18:03;;;;;;;28.27;14.23;;;10.00;99.90;;;;;;4453183;28;658550;-60
2020/12/05 13:20:51;;;;;;;34.33;15.13;;;9.90;99.90;;;;;;4421878;28;658491;-60
2020/12/05 13:23:38;;;;;;;32.53;14.57;;;9.90;99.90;;;;;;4444176;28;659669;-60
2020/12/05 13:26:25;;;;;;;30.07;15.47;;;9.80;99.90;;;;;;4425283;28;658860;-60
2020/12/05 13:29:12;;;;;;;39.50;19.03;;;9.70;99.90;;;;;;4458786;28;658602;-60
2020/12/05 13:31:59;;;;;;;49.10;23.63;;;9.70;99.90;;;;;;4444581;28;658564;-61
2020/12/05 13:34:46;;;;;;;36.93;17.33;;;9.60;99.90;;;;;;4463785;28;658214;-60
2020/12/05 13:37:34;;;;;;;36.17;17.53;;;9.50;99.90;;;;;;4461248;28;657885;-60
2020/12/05 13:40:21;;;;;;;40.47;19.13;;;9.50;99.90;;;;;;4444035;28;658192;-60
2020/12/05 13:43:08;;;;;;;40.37;18.33;;;9.50;99.90;;;;;;4462225;28;657892;-60
2020/12/05 13:45:55;;;;;;;46.53;19.07;;;9.40;99.90;;;;;;4439680;28;657945;-61
2020/12/05 13:48:42;;;;;;;33.80;17.23;;;9.40;99.90;;;;;;4458024;28;658601;-59
2020/12/05 13:51:29;;;;;;;47.33;19.07;;;9.40;99.90;;;;;;4460098;28;658225;-61
2020/12/05 13:54:17;;;;;;;38.83;19.20;;;9.50;99.90;;;;;;4458558;28;657850;-60
2020/12/05 13:57:05;;;;;;;35.77;16.00;;;9.40;99.90;;;;;;4438166;28;658168;-61
2020/12/05 13:59:51;;;;;;;37.90;17.33;;;9.50;99.90;;;;;;4465865;28;658175;-60
2020/12/05 14:02:38;;;;;;;58.53;25.27;;;9.50;99.90;;;;;;4458512;28;657900;-60
2020/12/05 14:05:25;;;;;;;50.90;20.10;;;9.50;99.90;;;;;;4450272;28;659338;-60
2020/12/05 14:08:12;;;;;;;69.53;25.03;;;9.40;99.90;;;;;;4461943;28;658316;-61
2020/12/05 14:11:00;;;;;;;58.20;21.90;;;9.40;99.90;;;;;;4440580;28;657495;-62
2020/12/05 14:13:47;;;;;;;56.10;22.30;;;9.40;99.90;;;;;;4464035;28;658908;-60